Time;durP1;ratioP1;P1;durP2;ratioP2;P2;SDS_P1;SDS_P2;PMS_P1;PMS_P2;Temp;Humidity;BMP_temperature;BMP_pressure;BME280_temperature;BME280_humidity;BME280_pressure;Samples;Min_cycle;Max_cycle;Signal;HPM_P1;HPM_P2
2023/12/08 00:01:01;;;;;;;;;;;;;;;0.77;69.98;97679.72;4966353;28;19934;-80
2023/12/08 00:03:49;;;;;;;;;;;;;;;0.62;70.10;97663.53;4966285;28;20069;-82
2023/12/08 00:06:39;;;;;;;;;;;;;;;0.50;70.30;97651.13;4965344;28;19928;-78
2023/12/08 00:09:27;;;;;;;;;;;;;;;0.64;70.62;97653.38;4973449;28;20283;-79
2023/12/08 00:12:17;;;;;;;;;;;;;;;0.29;70.76;97635.94;4957444;28;19922;-78
2023/12/08 00:15:05;;;;;;;;;;;;;;;0.41;70.64;97622.44;4958031;28;19922;-80
2023/12/08 00:17:55;;;;;;;;;;;;;;;0.48;70.63;97628.38;4968441;28;19929;-80
2023/12/08 00:20:43;;;;;;;;;;;;;;;0.58;69.51;97646.38;4961008;28;19926;-80
2023/12/08 00:23:56;;;;;;;;;;;;;;;0.79;69.61;97657.00;4960154;28;20057;-80
2023/12/08 00:26:45;;;;;;;;;;;;;;;0.93;68.95;97648.56;4966831;28;20265;-80
2023/12/08 00:29:36;;;;;;;;;;;;;;;1.04;68.76;97645.69;4969841;28;19929;-78
2023/12/08 00:32:24;;;;;;;;;;;;;;;1.08;68.62;97654.03;4966393;28;19930;-78
2023/12/08 00:35:12;;;;;;;;;;;;;;;0.90;68.58;97635.69;4970391;28;19922;-81
2023/12/08 00:38:01;;;;;;;;;;;;;;;0.66;69.49;97636.03;4967638;28;19938;-78
2023/12/08 00:40:50;;;;;;;;;;;;;;;0.86;69.54;97619.34;4966676;28;20385;-81
2023/12/08 00:43:38;;;;;;;;;;;;;;;0.84;69.10;97621.47;4968216;28;20217;-79
2023/12/08 00:50:04;;;;;;;;;;;;;;;0.75;69.88;97601.63;4955325;28;20021;-79
2023/12/08 00:52:53;;;;;;;;;;;;;;;0.80;69.91;97609.69;4971618;28;20288;-80
2023/12/08 00:55:41;;;;;;;;;;;;;;;0.83;69.48;97613.72;4971813;28;19926;-81
2023/12/08 00:58:29;;;;;;;;;;;;;;;0.97;69.17;97599.66;4969582;28;19934;-79
2023/12/08 01:04:31;;;;;;;;;;;;;;;1.04;68.82;97605.56;4970102;28;20013;-78
2023/12/08 01:07:20;;;;;;;;;;;;;;;1.11;68.38;97597.31;4968093;28;20390;-80
2023/12/08 01:10:09;;;;;;;;;;;;;;;1.15;68.84;97601.09;4957164;28;20041;-81
2023/12/08 01:12:57;;;;;;;;;;;;;;;0.69;68.92;97591.94;4970524;28;19926;-79
2023/12/08 01:15:45;;;;;;;;;;;;;;;0.47;69.97;97568.75;4969508;28;19922;-81
2023/12/08 01:18:37;;;;;;;;;;;;;;;0.60;69.34;97580.91;4956279;28;19922;-81
2023/12/08 01:21:27;;;;;;;;;;;;;;;0.61;69.65;97576.38;4970517;28;19929;-81
2023/12/08 01:24:16;;;;;;;;;;;;;;;0.75;70.03;97574.88;4967650;28;19938;-78
2023/12/08 01:27:05;;;;;;;;;;;;;;;1.00;69.26;97574.25;4954985;28;19922;-80
2023/12/08 01:29:54;;;;;;;;;;;;;;;1.04;68.52;97573.47;4970071;28;19922;-78
2023/12/08 01:32:44;;;;;;;;;;;;;;;1.07;68.74;97555.31;4967504;28;19933;-78
2023/12/08 01:35:32;;;;;;;;;;;;;;;1.20;68.19;97574.38;4961136;28;19930;-81
2023/12/08 01:38:21;;;;;;;;;;;;;;;1.23;68.62;97586.44;4967623;28;19922;-79
2023/12/08 01:41:35;;;;;;;;;;;;;;;1.14;68.50;97591.47;4968760;28;19929;-78
2023/12/08 01:44:24;;;;;;;;;;;;;;;1.00;68.08;97567.03;4967037;28;19930;-81
2023/12/08 01:47:12;;;;;;;;;;;;;;;0.71;69.00;97558.53;4967657;28;19948;-79
2023/12/08 01:50:02;;;;;;;;;;;;;;;0.93;68.77;97569.13;4964033;28;19923;-80
2023/12/08 01:52:51;;;;;;;;;;;;;;;1.15;68.47;97566.31;4965122;28;20395;-79
2023/12/08 01:55:41;;;;;;;;;;;;;;;1.41;67.82;97558.44;4963944;28;19922;-80
2023/12/08 01:58:29;;;;;;;;;;;;;;;1.42;67.34;97550.13;4966353;28;20399;-78
2023/12/08 02:01:43;;;;;;;;;;;;;;;1.13;67.51;97548.91;4972113;28;19980;-78
2023/12/08 02:04:31;;;;;;;;;;;;;;;1.29;67.66;97540.72;4973845;28;19922;-79
2023/12/08 02:07:20;;;;;;;;;;;;;;;1.43;67.15;97540.22;4973394;28;20308;-78
2023/12/08 02:10:08;;;;;;;;;;;;;;;1.27;66.74;97544.69;4971419;28;20292;-79
2023/12/08 02:12:58;;;;;;;;;;;;;;;0.79;68.25;97549.22;4958876;28;19929;-80
2023/12/08 02:15:47;;;;;;;;;;;;;;;1.09;67.70;97545.94;4967594;28;20013;-79
2023/12/08 02:18:36;;;;;;;;;;;;;;;1.31;67.25;97551.94;4974432;28;19937;-76
2023/12/08 02:21:25;;;;;;;;;;;;;;;1.46;66.37;97553.09;4974467;28;19922;-78
2023/12/08 02:24:19;;;;;;;;;;;;;;;1.25;66.92;97544.16;4970343;28;20438;-80
2023/12/08 02:27:10;;;;;;;;;;;;;;;0.91;67.30;97533.00;4958968;28;20432;-79
2023/12/08 02:29:58;;;;;;;;;;;;;;;1.27;66.40;97531.31;4957370;28;20392;-82
2023/12/08 02:32:48;;;;;;;;;;;;;;;1.25;66.75;97536.94;4971865;28;20032;-78
2023/12/08 02:35:38;;;;;;;;;;;;;;;1.42;66.19;97543.97;4967007;28;20032;-81
2023/12/08 02:38:26;;;;;;;;;;;;;;;1.54;66.09;97550.69;4973095;28;19984;-80
2023/12/08 02:41:16;;;;;;;;;;;;;;;1.23;66.18;97540.94;4973375;28;20411;-79
2023/12/08 02:44:04;;;;;;;;;;;;;;;1.12;66.09;97528.56;4972979;28;19933;-80
2023/12/08 02:46:55;;;;;;;;;;;;;;;1.01;67.14;97523.19;4960973;28;19949;-77
2023/12/08 02:50:10;;;;;;;;;;;;;;;1.25;66.40;97514.72;4970607;28;19922;-80
2023/12/08 02:52:59;;;;;;;;;;;;;;;1.23;65.72;97506.16;4964655;28;19953;-78
2023/12/08 02:55:53;;;;;;;;;;;;;;;1.03;67.08;97510.34;4968907;28;19921;-81
2023/12/08 02:58:42;;;;;;;;;;;;;;;1.23;66.86;97514.19;4971837;28;20012;-80
2023/12/08 03:01:35;;;;;;;;;;;;;;;1.15;66.36;97512.81;4966013;28;19922;-80
2023/12/08 03:04:23;;;;;;;;;;;;;;;1.28;66.70;97509.66;4972019;28;20361;-81
2023/12/08 03:07:12;;;;;;;;;;;;;;;1.09;66.44;97505.00;4969508;28;19923;-79
2023/12/08 03:10:01;;;;;;;;;;;;;;;1.10;66.67;97480.66;4973447;28;19929;-78
2023/12/08 03:12:54;;;;;;;;;;;;;;;0.98;66.19;97472.88;4960988;28;19922;-79
2023/12/08 03:15:43;;;;;;;;;;;;;;;0.68;66.97;97462.00;4971391;28;19922;-78
2023/12/08 03:18:31;;;;;;;;;;;;;;;0.69;67.42;97453.72;4969781;28;20375;-79
2023/12/08 03:21:21;;;;;;;;;;;;;;;0.96;67.22;97458.13;4973015;28;20013;-80
2023/12/08 03:24:10;;;;;;;;;;;;;;;1.15;66.54;97472.66;4975816;28;19937;-80
2023/12/08 03:26:59;;;;;;;;;;;;;;;1.25;66.24;97477.25;4974268;28;19922;-83
2023/12/08 03:29:48;;;;;;;;;;;;;;;1.13;66.34;97484.72;4957596;28;20000;-80
2023/12/08 03:32:38;;;;;;;;;;;;;;;1.10;66.46;97485.22;4969055;28;19977;-80
2023/12/08 03:35:32;;;;;;;;;;;;;;;1.30;65.76;97488.78;4968904;28;20009;-79
2023/12/08 03:38:45;;;;;;;;;;;;;;;1.23;65.96;97490.91;4971892;28;19922;-81
2023/12/08 03:41:57;;;;;;;;;;;;;;;0.73;66.97;97467.38;4955704;28;20403;-80
2023/12/08 03:44:45;;;;;;;;;;;;;;;0.74;67.25;97461.75;4973277;28;19922;-80
2023/12/08 03:47:34;;;;;;;;;;;;;;;0.99;66.58;97463.78;4970742;28;19953;-79
2023/12/08 03:50:24;;;;;;;;;;;;;;;0.92;66.92;97463.22;4959249;28;20297;-81
2023/12/08 03:53:14;;;;;;;;;;;;;;;0.73;66.64;97443.31;4961099;28;19922;-80
2023/12/08 03:56:02;;;;;;;;;;;;;;;1.00;66.19;97449.31;4968891;28;19940;-81
2023/12/08 03:59:16;;;;;;;;;;;;;;;1.15;65.67;97445.91;4965890;28;20404;-80
2023/12/08 04:02:29;;;;;;;;;;;;;;;0.90;65.51;97435.91;4966834;28;19929;-80
2023/12/08 04:05:18;;;;;;;;;;;;;;;1.08;66.49;97428.50;4963673;28;19922;-79
2023/12/08 04:08:07;;;;;;;;;;;;;;;0.90;65.92;97425.19;4971634;28;19933;-80
2023/12/08 04:10:57;;;;;;;;;;;;;;;0.77;66.68;97423.00;4969442;28;20064;-79
2023/12/08 04:13:48;;;;;;;;;;;;;;;0.99;66.10;97420.97;4972257;28;19933;-80
2023/12/08 04:16:36;;;;;;;;;;;;;;;1.24;66.14;97416.78;4965036;28;20175;-79
2023/12/08 04:19:24;;;;;;;;;;;;;;;1.33;65.74;97415.19;4972015;28;20361;-81
2023/12/08 04:22:13;;;;;;;;;;;;;;;0.54;66.65;97380.66;4967341;28;19934;-80
2023/12/08 04:28:40;;;;;;;;;;;;;;;0.77;66.55;97388.25;4955726;28;19922;-79
2023/12/08 04:31:28;;;;;;;;;;;;;;;1.14;66.13;97406.84;4945122;29;19929;-80
2023/12/08 04:34:16;;;;;;;;;;;;;;;0.87;65.87;97388.31;4973069;28;20299;-78
2023/12/08 04:37:05;;;;;;;;;;;;;;;1.36;65.48;97395.13;4970726;28;20399;-78
2023/12/08 04:39:55;;;;;;;;;;;;;;;1.38;65.02;97428.59;4967593;28;20024;-82
2023/12/08 04:42:45;;;;;;;;;;;;;;;1.40;64.74;97480.00;4967218;28;19922;-79
2023/12/08 04:45:33;;;;;;;;;;;;;;;1.58;64.61;97471.47;4969109;28;20013;-81
2023/12/08 04:48:22;;;;;;;;;;;;;;;1.60;63.60;97476.59;4967770;28;19922;-82
2023/12/08 04:51:10;;;;;;;;;;;;;;;1.46;64.58;97494.19;4968602;28;20396;-81
2023/12/08 04:53:59;;;;;;;;;;;;;;;1.51;64.74;97468.25;4956762;28;19922;-82
2023/12/08 04:56:47;;;;;;;;;;;;;;;1.72;64.34;97471.00;4952181;28;20004;-80
2023/12/08 04:59:37;;;;;;;;;;;;;;;1.19;65.21;97452.34;4971219;28;20375;-80
2023/12/08 05:02:30;;;;;;;;;;;;;;;1.09;65.79;97430.91;4965926;28;19922;-78
2023/12/08 05:05:19;;;;;;;;;;;;;;;1.45;65.47;97453.25;4972073;28;19922;-79
2023/12/08 05:08:07;;;;;;;;;;;;;;;1.12;65.19;97425.06;4971081;28;19922;-79
2023/12/08 05:11:00;;;;;;;;;;;;;;;0.64;67.02;97399.41;4966180;28;20136;-78
2023/12/08 05:13:48;;;;;;;;;;;;;;;0.97;66.73;97406.25;4971029;28;20383;-80
2023/12/08 05:17:01;;;;;;;;;;;;;;;1.21;66.09;97428.00;4971717;28;20408;-79
2023/12/08 05:20:39;;;;;;;;;;;;;;;1.43;65.28;97420.56;4968365;28;19930;-79
2023/12/08 05:26:40;;;;;;;;;;;;;;;1.68;63.99;97453.84;4955563;28;20444;-79
2023/12/08 05:29:53;;;;;;;;;;;;;;;2.11;63.86;97457.91;4955683;28;19922;-79
2023/12/08 05:32:42;;;;;;;;;;;;;;;2.15;63.01;97442.91;4970759;28;20057;-79
2023/12/08 05:35:30;;;;;;;;;;;;;;;2.01;63.49;97456.00;4972960;28;20300;-80
2023/12/08 05:38:20;;;;;;;;;;;;;;;2.08;63.70;97442.38;4970771;28;20019;-79
2023/12/08 05:41:08;;;;;;;;;;;;;;;1.93;63.64;97450.41;4971060;28;19934;-81
2023/12/08 05:43:56;;;;;;;;;;;;;;;1.91;63.14;97476.63;4970525;28;19933;-80
2023/12/08 05:49:57;;;;;;;;;;;;;;;2.17;63.43;97453.34;4968090;28;19922;-80
2023/12/08 05:52:45;;;;;;;;;;;;;;;2.00;63.43;97441.00;4968736;28;19922;-80
2023/12/08 05:55:36;;;;;;;;;;;;;;;2.00;63.50;97451.72;4970041;28;19937;-79
2023/12/08 05:58:29;;;;;;;;;;;;;;;1.93;63.65;97459.22;4967885;28;20388;-80
2023/12/08 06:01:18;;;;;;;;;;;;;;;2.20;62.95;97471.56;4964232;28;20032;-77
2023/12/08 06:04:08;;;;;;;;;;;;;;;2.32;62.52;97469.44;4969943;28;19922;-81
2023/12/08 06:06:56;;;;;;;;;;;;;;;2.03;62.82;97448.53;4967148;28;19937;-80
2023/12/08 06:09:44;;;;;;;;;;;;;;;2.05;63.37;97442.91;4970140;28;20451;-80
2023/12/08 06:19:24;;;;;;;;;;;;;;;2.12;62.95;97448.78;4969602;28;20249;-80
2023/12/08 06:22:13;;;;;;;;;;;;;;;2.18;62.49;97468.34;4972140;28;20488;-82
2023/12/08 06:28:38;;;;;;;;;;;;;;;1.91;62.89;97465.91;4967663;28;19966;-80
2023/12/08 06:31:27;;;;;;;;;;;;;;;2.30;61.98;97463.53;4971070;28;19926;-79
2023/12/08 06:34:15;;;;;;;;;;;;;;;2.52;62.01;97479.34;4970774;28;19922;-79
2023/12/08 06:37:05;;;;;;;;;;;;;;;2.61;61.60;97481.22;4971038;28;19928;-78
2023/12/08 06:39:53;;;;;;;;;;;;;;;2.58;61.27;97483.63;4962916;28;19927;-80
2023/12/08 06:43:07;;;;;;;;;;;;;;;2.41;61.58;97457.09;4968112;28;19922;-80
2023/12/08 06:45:56;;;;;;;;;;;;;;;1.96;63.16;97463.25;4968520;28;19934;-81
2023/12/08 06:48:45;;;;;;;;;;;;;;;2.35;62.68;97483.09;4970786;28;19922;-79
2023/12/08 06:51:34;;;;;;;;;;;;;;;1.84;63.72;97460.81;4970662;28;19953;-81
2023/12/08 06:54:22;;;;;;;;;;;;;;;1.66;63.33;97442.59;4973457;28;20380;-82
2023/12/08 06:57:11;;;;;;;;;;;;;;;1.64;64.16;97445.50;4965526;28;20364;-81
2023/12/08 06:59:59;;;;;;;;;;;;;;;1.64;63.38;97455.41;4969497;28;19941;-80
2023/12/08 07:02:51;;;;;;;;;;;;;;;1.47;64.20;97439.59;4966206;28;19957;-78
2023/12/08 07:09:17;;;;;;;;;;;;;;;1.70;63.70;97473.91;4971503;28;19969;-80
2023/12/08 07:12:06;;;;;;;;;;;;;;;1.29;65.36;97454.28;4974116;28;20057;-79
2023/12/08 07:14:55;;;;;;;;;;;;;;;1.63;65.01;97461.84;4966252;28;20400;-81
2023/12/08 07:18:09;;;;;;;;;;;;;;;1.80;63.99;97465.09;4972066;28;20020;-80
2023/12/08 07:20:59;;;;;;;;;;;;;;;1.62;64.52;97457.56;4963891;28;20391;-80
2023/12/08 07:23:47;;;;;;;;;;;;;;;1.76;64.27;97469.41;4971463;28;19922;-79
2023/12/08 07:26:35;;;;;;;;;;;;;;;1.72;64.13;97468.31;4970443;28;19922;-80
2023/12/08 07:32:36;;;;;;;;;;;;;;;2.00;63.38;97472.38;4969706;28;20417;-81
2023/12/08 07:35:24;;;;;;;;;;;;;;;1.65;63.21;97468.56;4972994;28;19922;-81
2023/12/08 07:38:13;;;;;;;;;;;;;;;1.32;64.76;97467.09;4967236;28;20451;-81
2023/12/08 07:41:04;;;;;;;;;;;;;;;1.37;65.60;97467.13;4970345;28;19922;-80
2023/12/08 07:43:54;;;;;;;;;;;;;;;1.31;65.51;97454.81;4972360;28;19929;-79
2023/12/08 07:47:07;;;;;;;;;;;;;;;0.91;66.04;97456.25;4968000;28;19945;-80
2023/12/08 07:49:55;;;;;;;;;;;;;;;1.62;64.99;97462.94;4969099;28;19922;-83
2023/12/08 07:52:44;;;;;;;;;;;;;;;1.52;63.68;97477.88;4969147;28;19949;-78
2023/12/08 07:55:34;;;;;;;;;;;;;;;1.73;63.82;97472.59;4973317;28;19922;-79
2023/12/08 08:06:00;;;;;;;;;;;;;;;1.43;63.98;97463.41;4970476;28;19934;-78
2023/12/08 08:08:51;;;;;;;;;;;;;;;1.80;64.01;97467.78;4958718;28;20368;-81
2023/12/08 08:11:42;;;;;;;;;;;;;;;1.65;64.01;97460.53;4960438;28;20020;-82
2023/12/08 08:14:30;;;;;;;;;;;;;;;1.92;64.15;97464.84;4957372;28;20218;-81
2023/12/08 08:20:34;;;;;;;;;;;;;;;2.28;62.74;97463.78;4968217;28;19950;-83
2023/12/08 08:23:47;;;;;;;;;;;;;;;2.41;62.51;97467.81;4958255;28;19928;-78
2023/12/08 08:26:35;;;;;;;;;;;;;;;2.49;61.91;97472.63;4966322;28;20044;-82
2023/12/08 08:29:34;;;;;;;;;;;;;;;2.15;62.08;97477.75;4974066;28;19925;-79
2023/12/08 08:32:23;;;;;;;;;;;;;;;2.47;62.30;97480.16;4957103;28;20009;-79
2023/12/08 08:35:11;;;;;;;;;;;;;;;2.22;62.15;97485.50;4972142;28;19922;-81
2023/12/08 08:38:00;;;;;;;;;;;;;;;2.22;62.58;97474.78;4964605;28;19928;-77
2023/12/08 08:40:48;;;;;;;;;;;;;;;2.15;63.30;97464.34;4970019;28;19929;-80
2023/12/08 08:43:37;;;;;;;;;;;;;;;2.24;63.40;97462.75;4956089;28;20376;-80
2023/12/08 08:49:39;;;;;;;;;;;;;;;2.57;63.61;97487.38;4965749;28;19982;-78
2023/12/08 08:52:54;;;;;;;;;;;;;;;2.70;63.32;97486.00;4968368;28;20373;-78
2023/12/08 08:55:44;;;;;;;;;;;;;;;2.28;63.39;97468.34;4963704;28;19941;-80
2023/12/08 09:05:23;;;;;;;;;;;;;;;2.51;63.20;97467.81;4955426;28;19929;-80
2023/12/08 09:08:12;;;;;;;;;;;;;;;2.36;63.46;97460.56;4945866;28;19922;-81
2023/12/08 09:11:01;;;;;;;;;;;;;;;2.51;63.17;97457.09;4969154;28;19926;-80
2023/12/08 09:13:49;;;;;;;;;;;;;;;2.29;63.85;97451.19;4971009;28;20057;-82
2023/12/08 09:16:37;;;;;;;;;;;;;;;2.33;63.70;97446.91;4960591;28;19926;-79
2023/12/08 09:19:27;;;;;;;;;;;;;;;2.67;63.18;97449.03;4963569;28;19929;-80
2023/12/08 09:22:16;;;;;;;;;;;;;;;2.83;63.06;97447.91;4971355;28;20403;-79
2023/12/08 09:25:29;;;;;;;;;;;;;;;2.58;63.93;97451.44;4969985;28;19926;-78
2023/12/08 09:28:41;;;;;;;;;;;;;;;2.68;62.88;97445.25;4966247;28;19922;-78
2023/12/08 09:31:29;;;;;;;;;;;;;;;2.58;63.39;97449.56;4966982;28;20422;-80
2023/12/08 09:34:18;;;;;;;;;;;;;;;2.61;64.30;97454.41;4967559;28;19923;-80
2023/12/08 09:37:08;;;;;;;;;;;;;;;2.87;62.85;97457.81;4971627;28;19923;-81
2023/12/08 09:40:16;;;;;;;;;;;;;;;2.90;63.05;97453.78;4970807;28;19922;-81
2023/12/08 09:43:08;;;;;;;;;;;;;;;2.87;63.20;97446.25;4972213;28;19929;-77
2023/12/08 09:45:57;;;;;;;;;;;;;;;2.75;63.93;97429.69;4968113;28;20005;-79
2023/12/08 09:48:47;;;;;;;;;;;;;;;2.58;64.13;97424.63;4965608;28;19962;-80
2023/12/08 09:51:35;;;;;;;;;;;;;;;2.03;64.34;97419.06;4963255;28;19969;-80
2023/12/08 09:57:37;;;;;;;;;;;;;;;2.43;64.75;97436.16;4969310;28;19922;-80
2023/12/08 10:00:26;;;;;;;;;;;;;;;2.52;64.41;97445.28;4970172;28;20335;-78
2023/12/08 10:03:16;;;;;;;;;;;;;;;2.71;63.38;97433.97;4969012;28;19922;-78
2023/12/08 10:06:04;;;;;;;;;;;;;;;2.91;64.19;97431.25;4966265;28;19922;-82
2023/12/08 10:08:53;;;;;;;;;;;;;;;2.98;63.41;97422.88;4963709;28;19998;-79
2023/12/08 10:11:44;;;;;;;;;;;;;;;2.99;63.50;97413.78;4967014;28;19958;-77
2023/12/08 10:14:32;;;;;;;;;;;;;;;3.03;63.82;97421.00;4969702;28;19922;-78
2023/12/08 10:17:46;;;;;;;;;;;;;;;2.93;62.73;97410.31;4974238;28;19933;-80
2023/12/08 10:20:36;;;;;;;;;;;;;;;3.10;63.08;97405.41;4968089;28;19929;-78
2023/12/08 10:26:38;;;;;;;;;;;;;;;3.27;62.89;97417.69;4973693;28;19926;-78
2023/12/08 10:29:51;;;;;;;;;;;;;;;3.35;63.04;97425.16;4961838;28;19927;-75
2023/12/08 10:32:42;;;;;;;;;;;;;;;3.50;62.47;97424.28;4968691;28;19937;-76
2023/12/08 10:35:30;;;;;;;;;;;;;;;3.55;62.17;97410.81;4972052;28;20025;-76
2023/12/08 10:38:21;;;;;;;;;;;;;;;3.38;62.74;97411.97;4963262;28;19926;-78
2023/12/08 10:41:09;;;;;;;;;;;;;;;3.52;62.75;97408.69;4973087;28;19930;-77
2023/12/08 10:43:58;;;;;;;;;;;;;;;3.51;63.47;97401.69;4975055;28;19926;-76
2023/12/08 10:50:01;;;;;;;;;;;;;;;3.58;62.61;97391.47;4948324;28;20127;-77
2023/12/08 10:52:50;;;;;;;;;;;;;;;3.28;62.98;97392.44;4962905;28;19934;-77
2023/12/08 10:55:39;;;;;;;;;;;;;;;3.13;63.70;97388.75;4956350;28;19933;-77
2023/12/08 10:58:52;;;;;;;;;;;;;;;3.37;63.31;97401.53;4973912;28;19933;-77
2023/12/08 11:02:09;;;;;;;;;;;;;;;3.25;64.83;97407.22;4971996;28;19937;-77
2023/12/08 11:04:58;;;;;;;;;;;;;;;2.91;65.48;97412.47;4975622;28;20013;-76
2023/12/08 11:07:49;;;;;;;;;;;;;;;3.22;65.66;97406.97;4972860;28;19930;-77
2023/12/08 11:13:51;;;;;;;;;;;;;;;3.08;66.10;97394.13;4975136;28;20018;-75
2023/12/08 11:16:39;;;;;;;;;;;;;;;3.24;66.95;97388.69;4954093;28;19934;-77
2023/12/08 11:19:28;;;;;;;;;;;;;;;3.13;67.68;97391.44;4959154;28;19937;-76
2023/12/08 11:22:17;;;;;;;;;;;;;;;3.15;68.00;97385.81;4972698;28;19933;-77
2023/12/08 11:28:48;;;;;;;;;;;;;;;3.04;68.54;97389.63;4967237;28;19927;-77
2023/12/08 11:31:38;;;;;;;;;;;;;;;3.17;67.95;97394.38;4951434;28;19928;-77
2023/12/08 11:34:32;;;;;;;;;;;;;;;3.42;67.20;97398.81;4971115;28;19933;-77
2023/12/08 11:37:23;;;;;;;;;;;;;;;3.44;67.65;97410.06;4975178;28;20065;-77
2023/12/08 11:40:13;;;;;;;;;;;;;;;3.10;68.20;97410.78;4976624;28;20357;-78
2023/12/08 11:43:02;;;;;;;;;;;;;;;3.19;69.14;97404.81;4942694;28;20004;-76
2023/12/08 11:45:53;;;;;;;;;;;;;;;3.33;68.38;97403.16;4974006;28;19926;-76
2023/12/08 11:48:52;;;;;;;;;;;;;;;3.44;68.43;97407.38;4975622;28;22619;-78
2023/12/08 11:51:42;;;;;;;;;;;;;;;3.44;68.39;97415.44;4950283;28;19996;-76
2023/12/08 11:58:06;;;;;;;;;;;;;;;3.44;68.19;97402.00;4970556;28;19933;-76
2023/12/08 12:00:56;;;;;;;;;;;;;;;3.44;68.31;97406.59;4973106;28;19927;-77
2023/12/08 12:03:45;;;;;;;;;;;;;;;3.55;68.52;97400.88;4973049;28;20368;-77
2023/12/08 12:06:33;;;;;;;;;;;;;;;3.56;69.39;97397.09;4959183;28;19930;-78
2023/12/08 12:09:22;;;;;;;;;;;;;;;3.57;69.07;97390.66;4958796;28;20073;-78
2023/12/08 12:12:13;;;;;;;;;;;;;;;3.18;69.71;97387.91;4966927;28;19930;-78
2023/12/08 12:15:03;;;;;;;;;;;;;;;3.22;70.96;97391.66;4969974;28;19930;-77
2023/12/08 12:17:52;;;;;;;;;;;;;;;3.32;70.00;97391.63;4975045;28;20049;-77
2023/12/08 12:20:41;;;;;;;;;;;;;;;3.36;69.98;97397.25;4977174;28;20337;-77
2023/12/08 12:23:54;;;;;;;;;;;;;;;3.65;69.71;97392.75;4973382;28;20166;-77
2023/12/08 12:26:43;;;;;;;;;;;;;;;3.35;70.44;97396.41;4971408;28;19937;-78
2023/12/08 12:32:45;;;;;;;;;;;;;;;3.32;70.99;97388.13;4969036;28;20302;-77
2023/12/08 12:35:37;;;;;;;;;;;;;;;3.39;71.19;97389.41;4956245;28;19927;-77
2023/12/08 12:38:30;;;;;;;;;;;;;;;3.50;71.05;97387.47;4952428;28;19930;-76
2023/12/08 12:41:25;;;;;;;;;;;;;;;3.56;70.89;97389.03;4972869;28;20309;-77
2023/12/08 12:44:13;;;;;;;;;;;;;;;3.42;71.69;97382.69;4969763;28;19926;-78
2023/12/08 12:47:02;;;;;;;;;;;;;;;3.56;71.52;97390.94;4972522;28;19930;-82
2023/12/08 12:50:04;;;;;;;;;;;;;;;3.50;71.48;97384.78;4962520;28;19969;-79
2023/12/08 12:52:53;;;;;;;;;;;;;;;3.73;71.97;97386.00;4963128;28;20294;-79
2023/12/08 12:55:41;;;;;;;;;;;;;;;3.89;71.04;97382.13;4956690;28;20385;-79
2023/12/08 12:58:29;;;;;;;;;;;;;;;3.56;71.91;97390.94;4969749;28;20294;-80
2023/12/08 13:01:20;;;;;;;;;;;;;;;3.74;72.16;97386.78;4968315;28;19930;-80
2023/12/08 13:04:08;;;;;;;;;;;;;;;3.81;71.69;97381.91;4970656;28;19935;-79
2023/12/08 13:06:58;;;;;;;;;;;;;;;3.73;71.70;97380.63;4964653;28;20294;-81
2023/12/08 13:09:46;;;;;;;;;;;;;;;3.82;71.96;97378.13;4960455;28;20024;-80
2023/12/08 13:19:23;;;;;;;;;;;;;;;3.87;72.17;97375.41;4968467;28;19926;-80
2023/12/08 13:22:13;;;;;;;;;;;;;;;3.99;71.88;97375.81;4954694;28;20294;-81
2023/12/08 13:28:38;;;;;;;;;;;;;;;3.67;73.24;97382.53;4959935;28;19927;-81
2023/12/08 13:31:27;;;;;;;;;;;;;;;3.87;72.70;97376.19;4971875;28;20302;-81
2023/12/08 13:34:18;;;;;;;;;;;;;;;3.91;72.79;97385.31;4970539;28;19977;-81
2023/12/08 13:37:07;;;;;;;;;;;;;;;3.98;72.49;97379.59;4958310;28;20019;-80
2023/12/08 13:39:56;;;;;;;;;;;;;;;4.03;72.77;97384.13;4972384;28;19973;-80
2023/12/08 13:42:45;;;;;;;;;;;;;;;4.05;72.88;97377.41;4970754;28;20020;-81
2023/12/08 13:45:33;;;;;;;;;;;;;;;4.10;73.47;97385.44;4955508;28;19942;-83
2023/12/08 13:48:22;;;;;;;;;;;;;;;4.21;73.28;97383.47;4980577;28;19958;-84
2023/12/08 13:51:11;;;;;;;;;;;;;;;4.23;73.09;97383.16;4980000;28;20094;-81
2023/12/08 13:54:16;;;;;;;;;;;;;;;4.24;72.89;97380.19;4973768;28;19934;-81
2023/12/08 13:57:06;;;;;;;;;;;;;;;4.20;73.40;97385.31;4966772;28;20317;-77
2023/12/08 13:59:54;;;;;;;;;;;;;;;4.22;73.32;97376.19;4970334;28;19937;-77
2023/12/08 14:02:43;;;;;;;;;;;;;;;4.15;73.30;97382.69;4973795;28;19926;-77
2023/12/08 14:05:31;;;;;;;;;;;;;;;4.22;73.37;97389.63;4955421;28;19926;-77
2023/12/08 14:08:20;;;;;;;;;;;;;;;4.39;73.21;97390.81;4972288;28;20383;-78
2023/12/08 14:11:08;;;;;;;;;;;;;;;4.43;73.48;97386.47;4972303;28;20285;-78
2023/12/08 14:13:57;;;;;;;;;;;;;;;4.55;73.39;97391.47;4969319;28;19953;-77
2023/12/08 14:16:45;;;;;;;;;;;;;;;4.31;73.27;97391.41;4955710;28;19937;-77
2023/12/08 14:19:34;;;;;;;;;;;;;;;4.43;73.74;97405.28;4975589;28;19926;-76
2023/12/08 14:22:22;;;;;;;;;;;;;;;4.58;73.08;97401.66;4975223;28;20020;-78
2023/12/08 14:28:47;;;;;;;;;;;;;;;4.59;73.04;97407.84;4971104;28;19926;-76
2023/12/08 14:31:37;;;;;;;;;;;;;;;4.49;73.31;97410.63;4972672;28;20405;-75
2023/12/08 14:34:25;;;;;;;;;;;;;;;4.45;73.23;97407.69;4973640;28;20482;-76
2023/12/08 14:37:14;;;;;;;;;;;;;;;4.44;73.56;97422.22;4974977;28;19926;-76
2023/12/08 14:40:03;;;;;;;;;;;;;;;4.41;73.59;97412.81;4981651;28;20064;-76
2023/12/08 14:42:53;;;;;;;;;;;;;;;4.50;73.42;97415.72;4975200;28;19930;-76
2023/12/08 14:45:41;;;;;;;;;;;;;;;4.54;73.21;97415.97;4973601;28;19941;-76
2023/12/08 14:48:32;;;;;;;;;;;;;;;4.56;73.17;97427.22;4956278;28;19930;-76
2023/12/08 14:51:20;;;;;;;;;;;;;;;4.58;72.98;97422.34;4966197;28;19926;-76
2023/12/08 14:54:09;;;;;;;;;;;;;;;4.56;73.17;97425.34;4957331;28;20028;-76
2023/12/08 14:56:57;;;;;;;;;;;;;;;4.49;73.41;97432.94;4965517;28;20394;-77
2023/12/08 14:59:46;;;;;;;;;;;;;;;4.47;73.07;97441.31;4970468;28;19934;-76
2023/12/08 15:02:34;;;;;;;;;;;;;;;4.54;73.40;97443.66;4958661;28;19941;-76
2023/12/08 15:05:25;;;;;;;;;;;;;;;4.38;74.28;97434.13;4957713;28;19937;-77
2023/12/08 15:08:17;;;;;;;;;;;;;;;4.43;74.00;97439.47;4974510;28;19926;-76
2023/12/08 15:11:05;;;;;;;;;;;;;;;4.29;74.50;97436.63;4968504;28;19934;-76
2023/12/08 15:13:54;;;;;;;;;;;;;;;4.37;74.20;97443.28;4974614;28;19933;-77
2023/12/08 15:16:42;;;;;;;;;;;;;;;4.37;74.30;97435.22;4966594;28;20329;-77
2023/12/08 15:19:30;;;;;;;;;;;;;;;4.41;74.30;97444.31;4974556;28;19930;-76
2023/12/08 15:22:23;;;;;;;;;;;;;;;4.53;74.10;97442.06;4971274;28;19926;-77
2023/12/08 15:28:48;;;;;;;;;;;;;;;4.60;74.24;97453.28;4969728;28;19926;-76
2023/12/08 15:31:39;;;;;;;;;;;;;;;4.64;73.59;97454.34;4972847;28;20402;-77
2023/12/08 15:34:27;;;;;;;;;;;;;;;4.74;74.13;97458.81;4971613;28;19926;-77
2023/12/08 15:37:15;;;;;;;;;;;;;;;4.36;75.18;97457.78;4960419;28;19926;-76
2023/12/08 15:40:05;;;;;;;;;;;;;;;4.44;74.62;97460.69;4959393;28;19926;-77
2023/12/08 15:42:55;;;;;;;;;;;;;;;4.54;74.48;97465.19;4969839;28;19981;-76
2023/12/08 15:45:43;;;;;;;;;;;;;;;4.62;74.06;97461.06;4971259;28;20012;-76
2023/12/08 15:48:32;;;;;;;;;;;;;;;4.50;74.53;97466.81;4957296;28;19930;-76
2023/12/08 15:51:20;;;;;;;;;;;;;;;4.59;74.05;97470.53;4963873;28;20012;-76
2023/12/08 15:54:09;;;;;;;;;;;;;;;4.70;73.95;97474.72;4972276;28;20403;-76
2023/12/08 15:56:58;;;;;;;;;;;;;;;4.71;74.05;97478.22;4954896;28;19956;-77
2023/12/08 15:59:46;;;;;;;;;;;;;;;4.70;73.83;97477.41;4968388;28;19941;-76
2023/12/08 16:02:37;;;;;;;;;;;;;;;4.55;74.35;97482.91;4969370;28;19926;-78
2023/12/08 16:05:26;;;;;;;;;;;;;;;4.59;74.49;97478.59;4972238;28;20374;-76
2023/12/08 16:08:14;;;;;;;;;;;;;;;4.56;74.13;97484.53;4969258;28;19932;-76
2023/12/08 16:11:02;;;;;;;;;;;;;;;4.63;74.03;97485.00;4969572;28;19934;-75
2023/12/08 16:13:52;;;;;;;;;;;;;;;4.65;74.03;97471.28;4982315;28;19934;-77
2023/12/08 16:16:48;;;;;;;;;;;;;;;4.78;73.69;97469.78;4966466;28;19974;-79
2023/12/08 16:19:37;;;;;;;;;;;;;;;4.87;73.78;97482.34;4956144;28;20362;-79
2023/12/08 16:22:25;;;;;;;;;;;;;;;4.82;73.49;97478.91;4958721;28;19976;-78
2023/12/08 16:36:05;;;;;;;;;;;;;;;4.96;72.51;97498.69;4973054;28;19926;-80
2023/12/08 16:39:19;;;;;;;;;;;;;;;4.78;73.03;97502.09;4957624;28;19930;-78
2023/12/08 16:42:10;;;;;;;;;;;;;;;4.59;74.28;97500.13;4966033;28;20446;-77
2023/12/08 16:45:00;;;;;;;;;;;;;;;4.83;73.42;97510.13;4967892;28;19933;-77
2023/12/08 16:48:14;;;;;;;;;;;;;;;4.91;73.46;97507.63;4965894;28;20016;-77
2023/12/08 16:51:03;;;;;;;;;;;;;;;4.93;72.81;97510.03;4967495;28;19937;-77